createdAt,value
2017-11-09T00:00:20.541Z,99.99
2017-11-09T00:01:20.431Z,99.99
2017-11-09T00:02:20.518Z,99.99
2017-11-09T00:03:20.424Z,99.99
2017-11-09T00:04:20.536Z,99.99
2017-11-09T00:05:20.541Z,99.99
2017-11-09T00:06:20.484Z,99.99
2017-11-09T00:07:20.514Z,99.99
2017-11-09T00:08:20.421Z,99.99
2017-11-09T00:09:20.448Z,99.99
2017-11-09T00:10:20.444Z,99.99
2017-11-09T00:11:20.514Z,99.99
2017-11-09T00:12:20.412Z,99.99
2017-11-09T00:13:20.418Z,99.99
2017-11-09T00:14:20.508Z,99.99
2017-11-09T00:15:20.563Z,99.99
2017-11-09T00:16:20.490Z,99.99
2017-11-09T00:17:20.559Z,99.99
2017-11-09T00:18:20.490Z,99.99
2017-11-09T00:19:20.557Z,99.99
2017-11-09T00:20:20.492Z,99.99
2017-11-09T00:21:20.570Z,99.99
2017-11-09T00:22:20.494Z,99.99
2017-11-09T00:23:20.587Z,99.99
2017-11-09T00:24:20.498Z,99.99
2017-11-09T00:25:20.556Z,99.99
2017-11-09T00:26:20.490Z,99.99
2017-11-09T00:27:20.472Z,99.99
2017-11-09T00:28:20.508Z,99.99
2017-11-09T00:29:20.571Z,99.99
2017-11-09T00:30:20.470Z,99.99
2017-11-09T00:31:20.568Z,99.99
2017-11-09T00:32:20.467Z,99.99
2017-11-09T00:33:20.552Z,99.99
2017-11-09T00:34:20.476Z,99.99
2017-11-09T00:35:20.511Z,99.99
2017-11-09T00:36:20.512Z,99.99
2017-11-09T00:37:20.476Z,99.99
2017-11-09T00:38:20.572Z,99.99
2017-11-09T00:39:20.474Z,99.99
2017-11-09T00:40:20.457Z,99.99
2017-11-09T00:41:20.477Z,99.99
2017-11-09T00:42:20.498Z,99.99
2017-11-09T00:43:20.462Z,99.99
2017-11-09T00:44:20.479Z,99.99
2017-11-09T00:45:20.571Z,99.99
2017-11-09T00:46:20.577Z,99.99
2017-11-09T00:47:20.472Z,99.99
2017-11-09T00:48:20.574Z,99.99
2017-11-09T00:49:20.512Z,99.99
2017-11-09T00:50:20.546Z,99.99
2017-11-09T00:51:20.514Z,99.99
2017-11-09T00:52:20.595Z,99.99
2017-11-09T00:53:20.531Z,99.99
2017-11-09T00:54:20.603Z,99.99
2017-11-09T00:55:20.450Z,99.99
2017-11-09T00:56:20.493Z,99.99
2017-11-09T00:57:20.578Z,99.99
2017-11-09T00:58:20.573Z,99.99
2017-11-09T00:59:20.570Z,99.99
2017-11-09T01:00:20.570Z,99.99
2017-11-09T01:01:20.493Z,99.99
2017-11-09T01:02:20.498Z,99.99
2017-11-09T01:03:20.584Z,99.99
2017-11-09T01:04:20.581Z,99.99
2017-11-09T01:05:20.533Z,99.99
2017-11-09T01:06:20.533Z,99.99
2017-11-09T01:07:20.489Z,99.99
2017-11-09T01:08:20.486Z,99.99
2017-11-09T01:09:20.522Z,99.99
2017-11-09T01:10:20.441Z,99.99
2017-11-09T01:11:20.463Z,99.99
2017-11-09T01:12:20.493Z,99.99
2017-11-09T01:13:20.500Z,99.99
2017-11-09T01:14:20.537Z,99.99
2017-11-09T01:15:20.581Z,99.99
2017-11-09T01:16:20.517Z,99.99
2017-11-09T01:17:20.519Z,99.99
2017-11-09T01:18:20.580Z,99.99
2017-11-09T01:19:20.593Z,99.99
2017-11-09T01:20:20.540Z,99.99
2017-11-09T01:21:20.542Z,99.99
2017-11-09T01:22:20.546Z,99.99
2017-11-09T01:23:20.595Z,99.99
2017-11-09T01:24:20.548Z,99.99
2017-11-09T01:25:20.596Z,99.99
2017-11-09T01:26:20.628Z,99.99
2017-11-09T01:27:20.602Z,99.99
2017-11-09T01:28:20.533Z,99.99
2017-11-09T01:29:20.602Z,99.99
2017-11-09T01:30:20.555Z,99.99
2017-11-09T01:31:20.602Z,99.99
2017-11-09T01:32:20.539Z,99.99
2017-11-09T01:33:20.605Z,99.99
2017-11-09T01:34:20.602Z,99.99
2017-11-09T01:35:20.601Z,99.99
2017-11-09T01:36:20.592Z,99.99
2017-11-09T01:37:20.511Z,99.99
2017-11-09T01:38:20.515Z,99.99
2017-11-09T01:39:20.599Z,99.99
2017-11-09T01:40:20.604Z,99.99
2017-11-09T01:41:20.516Z,99.99
2017-11-09T01:42:20.532Z,99.99
2017-11-09T01:43:20.581Z,99.99
2017-11-09T01:44:20.598Z,99.99
2017-11-09T01:45:20.540Z,99.99
2017-11-09T01:46:20.600Z,99.99
2017-11-09T01:47:20.605Z,99.99
2017-11-09T01:48:20.557Z,99.99
2017-11-09T01:49:20.599Z,99.99
2017-11-09T01:50:20.488Z,99.99
2017-11-09T01:51:20.526Z,99.99
2017-11-09T01:52:20.541Z,99.99
2017-11-09T01:53:20.535Z,99.99
2017-11-09T01:54:20.603Z,99.99
2017-11-09T01:55:20.554Z,99.99
2017-11-09T01:56:20.485Z,99.99
2017-11-09T01:57:20.549Z,99.99
2017-11-09T01:58:20.575Z,99.99
2017-11-09T01:59:20.601Z,99.99
2017-11-09T02:00:20.523Z,99.99
2017-11-09T02:01:20.490Z,99.99
2017-11-09T02:02:20.602Z,99.99
2017-11-09T02:03:20.604Z,99.99
2017-11-09T02:04:20.607Z,99.99
2017-11-09T02:05:20.619Z,99.99
2017-11-09T02:06:20.624Z,99.99
2017-11-09T02:07:20.696Z,99.99
2017-11-09T02:08:20.619Z,99.99
2017-11-09T02:09:20.617Z,99.99
2017-11-09T02:10:20.622Z,99.99
2017-11-09T02:11:20.667Z,99.99
2017-11-09T02:12:20.627Z,99.99
2017-11-09T02:13:20.626Z,99.99
2017-11-09T02:14:20.632Z,99.99
2017-11-09T02:15:20.628Z,99.99
2017-11-09T02:16:20.631Z,99.99
2017-11-09T02:17:20.567Z,99.99
2017-11-09T02:18:20.630Z,99.99
2017-11-09T02:19:20.565Z,99.99
2017-11-09T02:20:20.634Z,99.99
2017-11-09T02:21:20.575Z,99.99
2017-11-09T02:22:20.518Z,99.99
2017-11-09T02:23:20.569Z,99.99
2017-11-09T02:24:20.636Z,99.99
2017-11-09T02:25:20.571Z,99.99
2017-11-09T02:26:20.568Z,99.99
2017-11-09T02:27:20.634Z,99.99
2017-11-09T02:28:20.615Z,99.99
2017-11-09T02:29:20.585Z,99.99
2017-11-09T02:30:20.639Z,99.99
2017-11-09T02:31:20.574Z,99.99
2017-11-09T02:32:20.579Z,99.99
2017-11-09T02:33:20.583Z,99.99
2017-11-09T02:34:20.638Z,99.99
2017-11-09T02:35:20.574Z,99.99
2017-11-09T02:36:20.576Z,99.99
2017-11-09T02:37:20.642Z,99.99
2017-11-09T02:38:20.578Z,99.99
2017-11-09T02:39:20.644Z,99.99
2017-11-09T02:40:20.576Z,99.99
2017-11-09T02:41:20.646Z,99.99
2017-11-09T02:42:20.643Z,99.99
2017-11-09T02:43:20.583Z,99.99
2017-11-09T02:44:20.585Z,99.99
2017-11-09T02:45:20.645Z,99.99
2017-11-09T02:46:20.583Z,99.99
2017-11-09T02:47:20.649Z,99.99
2017-11-09T02:48:20.585Z,99.99
2017-11-09T02:49:20.670Z,99.99
2017-11-09T02:50:20.649Z,99.99
2017-11-09T02:51:20.650Z,99.99
2017-11-09T02:52:20.653Z,99.99
2017-11-09T02:53:20.588Z,99.99
2017-11-09T02:54:20.589Z,99.99
2017-11-09T02:55:20.661Z,99.99
2017-11-09T02:56:20.587Z,99.99
2017-11-09T02:57:20.534Z,99.99
2017-11-09T02:58:20.590Z,99.99
2017-11-09T02:59:20.589Z,99.99
2017-11-09T03:00:20.655Z,99.99
2017-11-09T03:01:20.658Z,99.99
2017-11-09T03:02:20.602Z,99.99
2017-11-09T03:03:20.658Z,99.99
2017-11-09T03:04:20.596Z,99.99
2017-11-09T03:05:20.594Z,99.99
2017-11-09T03:06:20.644Z,99.99
2017-11-09T03:07:20.549Z,99.99
2017-11-09T03:08:20.643Z,99.99
2017-11-09T03:09:20.621Z,99.99
2017-11-09T03:10:20.554Z,99.99
2017-11-09T03:11:20.556Z,99.99
2017-11-09T03:12:20.592Z,99.99
2017-11-09T03:13:20.625Z,99.99
2017-11-09T03:14:20.625Z,99.99
2017-11-09T03:15:20.627Z,99.99
2017-11-09T03:16:20.601Z,99.99
2017-11-09T03:17:20.667Z,99.99
2017-11-09T03:18:20.618Z,99.99
2017-11-09T03:19:20.607Z,99.99
2017-11-09T03:20:20.669Z,99.99
2017-11-09T03:21:20.609Z,99.99
2017-11-09T03:22:20.665Z,99.99
2017-11-09T03:23:20.599Z,99.99
2017-11-09T03:24:20.675Z,99.99
2017-11-09T03:25:20.670Z,99.99
2017-11-09T03:26:20.665Z,99.99
2017-11-09T03:27:20.577Z,99.99
2017-11-09T03:28:20.617Z,99.99
2017-11-09T03:29:20.586Z,99.99
2017-11-09T03:30:20.577Z,99.99
2017-11-09T03:31:20.672Z,99.99
2017-11-09T03:32:20.579Z,99.99
2017-11-09T03:33:20.602Z,99.99
2017-11-09T03:34:20.578Z,99.99
2017-11-09T03:35:20.580Z,99.99
2017-11-09T03:36:20.707Z,99.99
2017-11-09T03:37:20.704Z,99.99
2017-11-09T03:38:20.676Z,99.99
2017-11-09T03:39:20.612Z,99.99
2017-11-09T03:40:20.680Z,99.99
2017-11-09T03:41:20.693Z,99.99
2017-11-09T03:42:20.613Z,99.99
2017-11-09T03:43:20.682Z,99.99
2017-11-09T03:44:20.682Z,99.99
2017-11-09T03:45:20.680Z,99.99
2017-11-09T03:46:20.621Z,99.99
2017-11-09T03:47:20.682Z,99.99
2017-11-09T03:48:20.683Z,99.99
2017-11-09T03:49:20.618Z,99.99
2017-11-09T03:50:20.685Z,99.99
2017-11-09T03:51:20.687Z,99.99
2017-11-09T03:52:20.691Z,99.99
2017-11-09T03:53:20.624Z,99.99
2017-11-09T03:54:20.689Z,99.99
2017-11-09T03:55:20.688Z,99.99
2017-11-09T03:56:20.587Z,99.99
2017-11-09T03:57:20.683Z,99.99
2017-11-09T03:58:20.556Z,99.99
2017-11-09T03:59:20.633Z,99.99
2017-11-09T04:00:20.562Z,99.99
2017-11-09T04:01:20.556Z,99.99
2017-11-09T04:02:20.622Z,99.99
2017-11-09T04:03:20.694Z,99.99
2017-11-09T04:04:20.630Z,99.99
2017-11-09T04:05:20.595Z,99.99
2017-11-09T04:06:20.631Z,99.99
2017-11-09T04:07:20.699Z,99.99
2017-11-09T04:08:20.633Z,99.99
2017-11-09T04:09:20.696Z,99.99
2017-11-09T04:10:20.700Z,99.99
2017-11-09T04:11:20.696Z,99.99
2017-11-09T04:12:20.674Z,99.99
2017-11-09T04:13:20.637Z,99.99
2017-11-09T04:14:20.701Z,99.99
2017-11-09T04:15:20.700Z,99.99
2017-11-09T04:16:20.640Z,99.99
2017-11-09T04:17:20.700Z,99.99
2017-11-09T04:18:20.641Z,99.99
2017-11-09T04:19:20.642Z,99.99
2017-11-09T04:20:20.706Z,99.99
2017-11-09T04:21:20.638Z,99.99
2017-11-09T04:22:20.705Z,99.99
2017-11-09T04:23:20.640Z,99.99
2017-11-09T04:24:20.711Z,99.99
2017-11-09T04:25:20.705Z,99.99
2017-11-09T04:26:20.651Z,99.99
2017-11-09T04:27:20.700Z,99.99
2017-11-09T04:28:20.609Z,99.99
2017-11-09T04:29:20.616Z,99.99
2017-11-09T04:30:20.711Z,99.99
2017-11-09T04:31:20.617Z,99.99
2017-11-09T04:32:20.667Z,99.99
2017-11-09T04:33:20.704Z,99.99
2017-11-09T04:34:20.634Z,99.99
2017-11-09T04:35:20.703Z,99.99
2017-11-09T04:36:20.661Z,99.99
2017-11-09T04:37:20.660Z,99.99
2017-11-09T04:38:20.673Z,99.99
2017-11-09T04:39:20.662Z,99.99
2017-11-09T04:40:20.619Z,99.99
2017-11-09T04:41:20.571Z,99.99
2017-11-09T04:42:20.570Z,99.99
2017-11-09T04:43:20.665Z,99.99
2017-11-09T04:44:20.664Z,99.99
2017-11-09T04:45:20.667Z,99.99
2017-11-09T04:46:20.720Z,99.99
2017-11-09T04:47:20.669Z,99.99
2017-11-09T04:48:20.657Z,99.99
2017-11-09T04:49:20.719Z,99.99
2017-11-09T04:50:20.658Z,99.99
2017-11-09T04:51:20.663Z,99.99
2017-11-09T04:52:20.723Z,99.99
2017-11-09T04:53:20.657Z,99.99
2017-11-09T04:54:20.724Z,99.99
2017-11-09T04:55:20.673Z,99.99
2017-11-09T04:56:20.628Z,99.99
2017-11-09T04:57:20.716Z,99.99
2017-11-09T04:58:20.685Z,99.99
2017-11-09T04:59:20.686Z,99.99
2017-11-09T05:00:20.652Z,99.99
2017-11-09T05:01:20.593Z,99.99
2017-11-09T05:02:20.681Z,99.99
2017-11-09T05:03:20.666Z,99.99
2017-11-09T05:04:20.662Z,99.99
2017-11-09T05:05:20.720Z,99.99
2017-11-09T05:06:20.663Z,99.99
2017-11-09T05:07:20.731Z,99.99
2017-11-09T05:08:20.765Z,99.99
2017-11-09T05:09:20.734Z,99.99
2017-11-09T05:10:20.734Z,99.99
2017-11-09T05:11:20.698Z,99.99
2017-11-09T05:12:20.682Z,99.99
2017-11-09T05:13:20.732Z,99.99
2017-11-09T05:14:20.677Z,99.99
2017-11-09T05:15:20.756Z,99.99
2017-11-09T05:16:20.709Z,99.99
2017-11-09T05:18:20.644Z,99.99
2017-11-09T05:19:20.609Z,99.99
2017-11-09T05:20:20.738Z,99.99
2017-11-09T05:21:20.645Z,99.99
2017-11-09T05:22:20.734Z,99.99
2017-11-09T05:23:20.653Z,99.99
2017-11-09T05:24:20.735Z,99.99
2017-11-09T05:25:20.744Z,99.99
2017-11-09T05:26:20.746Z,99.99
2017-11-09T05:27:20.676Z,99.99
2017-11-09T05:28:20.680Z,99.99
2017-11-09T05:29:20.679Z,99.99
2017-11-09T05:30:20.679Z,99.99
2017-11-09T05:31:20.679Z,99.99
2017-11-09T05:32:20.751Z,99.99
2017-11-09T05:33:20.747Z,99.99
2017-11-09T05:34:20.683Z,99.99
2017-11-09T05:35:20.750Z,99.99
2017-11-09T05:36:20.711Z,99.99
2017-11-09T05:37:20.653Z,99.99
2017-11-09T05:38:20.749Z,99.99
2017-11-09T05:39:20.743Z,99.99
2017-11-09T05:40:20.632Z,99.99
2017-11-09T05:41:20.746Z,99.99
2017-11-09T05:42:20.658Z,99.99
2017-11-09T05:43:20.742Z,99.99
2017-11-09T05:44:20.783Z,99.99
2017-11-09T05:45:20.740Z,99.99
2017-11-09T05:46:20.728Z,99.99
2017-11-09T05:47:20.692Z,99.99
2017-11-09T05:48:20.695Z,99.99
2017-11-09T05:49:20.771Z,99.99
2017-11-09T05:50:20.693Z,99.99
2017-11-09T05:51:20.759Z,99.99
2017-11-09T05:52:20.691Z,99.99
2017-11-09T05:53:20.761Z,99.99
2017-11-09T05:54:20.694Z,99.99
2017-11-09T05:55:20.761Z,99.99
2017-11-09T05:56:20.703Z,99.99
2017-11-09T05:57:20.702Z,99.99
2017-11-09T05:58:20.761Z,99.99
2017-11-09T05:59:20.704Z,99.99
2017-11-09T06:00:20.730Z,99.99
2017-11-09T06:01:20.764Z,99.99
2017-11-09T06:02:20.697Z,99.99
2017-11-09T06:03:20.770Z,99.99
2017-11-09T06:04:20.771Z,99.99
2017-11-09T06:05:20.767Z,99.99
2017-11-09T06:06:20.719Z,99.99
2017-11-09T06:07:20.704Z,99.99
2017-11-09T06:08:20.708Z,99.99
2017-11-09T06:09:20.705Z,99.99
2017-11-09T06:10:20.769Z,99.99
2017-11-09T06:11:20.708Z,99.99
2017-11-09T06:12:20.769Z,99.99
2017-11-09T06:13:20.708Z,99.99
2017-11-09T06:14:20.776Z,99.99
2017-11-09T06:15:20.709Z,99.99
2017-11-09T06:16:20.779Z,99.99
2017-11-09T06:17:20.706Z,99.99
2017-11-09T06:18:20.772Z,99.99
2017-11-09T06:19:20.773Z,99.99
2017-11-09T06:20:20.711Z,99.99
2017-11-09T06:21:20.708Z,99.99
2017-11-09T06:22:20.794Z,99.99
2017-11-09T06:23:20.714Z,99.99
2017-11-09T06:24:20.977Z,99.99
2017-11-09T06:25:20.779Z,99.99
2017-11-09T06:26:20.745Z,99.99
2017-11-09T06:27:20.715Z,99.99
2017-11-09T06:28:20.781Z,99.99
2017-11-09T06:29:20.785Z,99.99
2017-11-09T06:30:20.779Z,99.99
2017-11-09T06:31:20.780Z,99.99
2017-11-09T06:32:20.722Z,99.99
2017-11-09T06:33:20.787Z,99.99
2017-11-09T06:34:20.723Z,99.99
2017-11-09T06:35:20.784Z,99.99
2017-11-09T06:36:20.720Z,99.99
2017-11-09T06:37:20.724Z,99.99
2017-11-09T06:38:20.791Z,99.99
2017-11-09T06:39:20.721Z,99.99
2017-11-09T06:40:20.786Z,99.99
2017-11-09T06:41:20.726Z,99.99
2017-11-09T06:42:20.790Z,99.99
2017-11-09T06:43:20.728Z,99.99
2017-11-09T06:44:20.684Z,99.99
2017-11-09T06:45:20.789Z,99.99
2017-11-09T06:46:20.662Z,99.99
2017-11-09T06:47:20.699Z,99.99
2017-11-09T06:48:20.698Z,99.99
2017-11-09T06:49:20.738Z,99.99
2017-11-09T06:50:20.782Z,99.99
2017-11-09T06:51:20.719Z,99.99
2017-11-09T06:52:20.783Z,99.99
2017-11-09T06:53:20.786Z,99.99
2017-11-09T06:54:20.788Z,99.99
2017-11-09T06:55:20.794Z,99.99
2017-11-09T06:56:20.793Z,99.99
2017-11-09T06:57:20.721Z,99.99
2017-11-09T06:58:20.753Z,99.99
2017-11-09T06:59:20.677Z,99.99
2017-11-09T07:00:20.796Z,99.99
2017-11-09T07:01:20.800Z,99.99
2017-11-09T07:02:20.726Z,99.99
2017-11-09T07:03:20.751Z,99.99
2017-11-09T07:04:20.665Z,99.99
2017-11-09T07:05:20.793Z,99.99
2017-11-09T07:06:20.735Z,99.99
2017-11-09T07:07:20.758Z,99.99
2017-11-09T07:08:20.795Z,99.99
2017-11-09T07:09:20.794Z,99.99
2017-11-09T07:10:20.707Z,99.99
2017-11-09T07:11:20.752Z,99.99
2017-11-09T07:12:20.708Z,99.99
2017-11-09T07:13:20.738Z,99.99
2017-11-09T07:14:20.793Z,99.99
2017-11-09T07:15:20.773Z,99.99
2017-11-09T07:16:20.715Z,99.99
2017-11-09T07:17:20.677Z,99.99
2017-11-09T07:18:20.706Z,99.99
2017-11-09T07:19:20.766Z,99.99
2017-11-09T07:20:20.719Z,99.99
2017-11-09T07:21:20.800Z,99.99
2017-11-09T07:22:20.713Z,99.99
2017-11-09T07:23:20.716Z,99.99
2017-11-09T07:24:20.783Z,99.99
2017-11-09T07:25:20.712Z,99.99
2017-11-09T07:26:20.744Z,99.99
2017-11-09T07:27:20.815Z,99.99
2017-11-09T07:28:20.812Z,99.99
2017-11-09T07:29:20.815Z,99.99
2017-11-09T07:30:20.829Z,99.99
2017-11-09T07:31:20.750Z,99.99
2017-11-09T07:32:20.750Z,99.99
2017-11-09T07:33:20.819Z,99.99
2017-11-09T07:34:20.790Z,99.99
2017-11-09T07:35:20.819Z,99.99
2017-11-09T07:36:20.727Z,99.99
2017-11-09T07:37:20.774Z,99.99
2017-11-09T07:38:20.730Z,99.99
2017-11-09T07:39:20.727Z,99.99
2017-11-09T07:40:20.742Z,99.99
2017-11-09T07:41:20.812Z,99.99
2017-11-09T07:42:20.750Z,99.99
2017-11-09T07:43:20.815Z,99.99
2017-11-09T07:44:20.809Z,99.99
2017-11-09T07:45:20.816Z,99.99
2017-11-09T07:46:20.825Z,99.99
2017-11-09T07:47:20.758Z,99.99
2017-11-09T07:48:20.828Z,99.99
2017-11-09T07:49:20.763Z,99.99
2017-11-09T07:50:20.768Z,99.99
2017-11-09T07:51:20.827Z,99.99
2017-11-09T07:52:20.758Z,99.99
2017-11-09T07:53:20.832Z,99.99
2017-11-09T07:54:20.766Z,99.99
2017-11-09T07:55:20.831Z,99.99
2017-11-09T07:56:20.767Z,99.99
2017-11-09T07:57:20.832Z,99.99
2017-11-09T07:58:20.763Z,99.99
2017-11-09T07:59:20.836Z,99.99
2017-11-09T08:00:20.766Z,99.99
2017-11-09T08:01:20.834Z,99.99
2017-11-09T08:02:20.770Z,99.99
2017-11-09T08:03:20.835Z,99.99
2017-11-09T08:04:20.770Z,99.99
2017-11-09T08:05:20.837Z,99.99
2017-11-09T08:06:20.770Z,99.99
2017-11-09T08:07:20.845Z,99.99
2017-11-09T08:08:20.783Z,99.99
2017-11-09T08:09:20.839Z,99.99
2017-11-09T08:10:20.839Z,99.99
2017-11-09T08:11:20.773Z,99.99
2017-11-09T08:12:20.840Z,99.99
2017-11-09T08:13:20.843Z,99.99
2017-11-09T08:14:20.843Z,99.99
2017-11-09T08:15:20.773Z,99.99
2017-11-09T08:16:20.703Z,99.99
2017-11-09T08:17:20.710Z,99.99
2017-11-09T08:18:20.708Z,99.99
2017-11-09T08:19:20.827Z,99.99
2017-11-09T08:20:20.770Z,99.99
2017-11-09T08:21:20.803Z,99.99
2017-11-09T08:22:20.784Z,99.99
2017-11-09T08:23:20.736Z,99.99
2017-11-09T08:24:20.708Z,99.99
2017-11-09T08:25:20.773Z,99.99
2017-11-09T08:26:20.853Z,99.99
2017-11-09T08:27:20.790Z,99.99
2017-11-09T08:28:20.852Z,99.99
2017-11-09T08:29:20.853Z,99.99
2017-11-09T08:30:20.853Z,99.99
2017-11-09T08:31:20.815Z,99.99
2017-11-09T08:32:20.796Z,99.99
2017-11-09T08:33:20.829Z,99.99
2017-11-09T08:34:20.858Z,99.99
2017-11-09T08:35:20.791Z,99.99
2017-11-09T08:36:20.856Z,99.99
2017-11-09T08:37:20.788Z,99.99
2017-11-09T08:38:20.865Z,99.99
2017-11-09T08:39:20.788Z,99.99
2017-11-09T08:40:20.793Z,99.99
2017-11-09T08:41:20.860Z,99.99
2017-11-09T08:42:20.795Z,99.99
2017-11-09T08:43:20.863Z,99.99
2017-11-09T08:44:20.794Z,99.99
2017-11-09T08:45:20.861Z,99.99
2017-11-09T08:46:20.863Z,99.99
2017-11-09T08:47:20.795Z,99.99
2017-11-09T08:48:20.865Z,99.99
2017-11-09T08:49:20.803Z,99.99
2017-11-09T08:50:20.798Z,99.99
2017-11-09T08:51:20.863Z,99.99
2017-11-09T08:52:20.802Z,99.99
2017-11-09T08:53:20.869Z,99.99
2017-11-09T08:54:20.800Z,99.99
2017-11-09T08:55:20.799Z,99.99
2017-11-09T08:56:20.801Z,99.99
2017-11-09T08:57:20.868Z,99.99
2017-11-09T08:58:20.798Z,99.99
2017-11-09T08:59:20.872Z,99.99
2017-11-09T09:01:20.873Z,99.99
2017-11-09T09:02:20.806Z,99.99
2017-11-09T09:03:20.958Z,99.99
2017-11-09T09:04:20.872Z,99.99
2017-11-09T09:05:20.874Z,99.99
2017-11-09T09:06:20.874Z,99.99
2017-11-09T09:07:20.806Z,99.99
2017-11-09T09:08:20.809Z,99.99
2017-11-09T09:09:20.875Z,99.99
2017-11-09T09:10:20.874Z,99.99
2017-11-09T09:11:20.811Z,99.99
2017-11-09T09:12:20.878Z,99.99
2017-11-09T09:13:20.812Z,99.99
2017-11-09T09:14:20.814Z,99.99
2017-11-09T09:15:20.773Z,99.99
2017-11-09T09:16:20.879Z,99.99
2017-11-09T09:17:20.881Z,99.99
2017-11-09T09:18:20.882Z,99.99
2017-11-09T09:19:20.814Z,99.99
2017-11-09T09:20:20.815Z,99.99
2017-11-09T09:21:20.890Z,99.99
2017-11-09T09:22:20.835Z,99.99
2017-11-09T09:23:20.883Z,99.99
2017-11-09T09:24:20.885Z,99.99
2017-11-09T09:25:20.884Z,99.99
2017-11-09T09:26:20.812Z,99.99
2017-11-09T09:27:20.842Z,99.99
2017-11-09T09:28:20.777Z,99.99
2017-11-09T09:29:20.781Z,99.99
2017-11-09T09:30:20.755Z,99.72
2017-11-09T09:31:20.846Z,99.64
2017-11-09T09:32:20.840Z,99.67
2017-11-09T09:33:20.852Z,99.67
2017-11-09T09:34:20.787Z,99.70
2017-11-09T09:35:20.841Z,99.70
2017-11-09T09:36:20.899Z,99.72
2017-11-09T09:37:20.893Z,99.78
2017-11-09T09:38:20.900Z,99.78
2017-11-09T09:39:20.826Z,99.64
2017-11-09T09:40:20.831Z,99.51
2017-11-09T09:41:20.830Z,99.45
2017-11-09T09:42:20.895Z,99.45
2017-11-09T09:43:20.830Z,99.29
2017-11-09T09:44:20.909Z,99.13
2017-11-09T09:45:20.834Z,98.99
2017-11-09T09:46:20.823Z,99.07
2017-11-09T09:47:20.834Z,99.21
2017-11-09T09:48:20.781Z,99.21
2017-11-09T09:49:20.901Z,99.10
2017-11-09T09:50:20.902Z,99.04
2017-11-09T09:51:20.829Z,98.99
2017-11-09T09:52:20.901Z,98.94
2017-11-09T09:53:20.832Z,98.91
2017-11-09T09:54:20.838Z,98.75
2017-11-09T09:55:20.901Z,98.40
2017-11-09T09:56:20.835Z,98.12
2017-11-09T09:57:20.770Z,98.18
2017-11-09T09:58:20.854Z,98.21
2017-11-09T09:59:20.792Z,98.07
2017-11-09T10:00:20.891Z,97.93
2017-11-09T10:01:20.849Z,97.85
2017-11-09T10:02:20.853Z,97.91
2017-11-09T10:03:20.805Z,97.93
2017-11-09T10:04:20.893Z,97.77
2017-11-09T10:05:20.864Z,97.72
2017-11-09T10:06:20.782Z,97.80
2017-11-09T10:07:20.844Z,97.88
2017-11-09T10:08:20.910Z,97.80
2017-11-09T10:09:20.851Z,97.69
2017-11-09T10:10:20.915Z,97.55
2017-11-09T10:11:20.850Z,97.53
2017-11-09T10:12:20.846Z,97.58
2017-11-09T10:13:20.915Z,97.64
2017-11-09T10:14:20.849Z,97.72
2017-11-09T10:15:20.914Z,97.80
2017-11-09T10:16:20.848Z,97.88
2017-11-09T10:17:20.918Z,97.88
2017-11-09T10:18:20.919Z,97.91
2017-11-09T10:19:20.850Z,97.80
2017-11-09T10:20:20.919Z,97.80
2017-11-09T10:21:20.920Z,98.02
2017-11-09T10:22:20.967Z,97.88
2017-11-09T10:23:20.919Z,97.58
2017-11-09T10:24:20.921Z,97.34
2017-11-09T10:25:20.853Z,97.07
2017-11-09T10:26:20.855Z,96.99
2017-11-09T10:27:20.921Z,97.21
2017-11-09T10:28:20.860Z,97.34
2017-11-09T10:29:20.928Z,97.53
2017-11-09T10:30:20.858Z,97.53
2017-11-09T10:31:20.926Z,96.69
2017-11-09T10:32:20.857Z,95.50
2017-11-09T10:33:20.875Z,95.20
2017-11-09T10:34:20.926Z,94.86
2017-11-09T10:35:20.860Z,94.07
2017-11-09T10:36:20.864Z,93.24
2017-11-09T10:37:20.838Z,92.84
2017-11-09T10:38:20.857Z,92.08
2017-11-09T10:39:20.887Z,92.03
2017-11-09T10:40:20.794Z,91.90
2017-11-09T10:41:20.887Z,91.36
2017-11-09T10:42:20.930Z,91.44
2017-11-09T10:43:20.842Z,91.60
2017-11-09T10:44:20.819Z,91.71
2017-11-09T10:45:20.808Z,91.76
2017-11-09T10:46:20.865Z,90.71
2017-11-09T10:47:20.843Z,89.62
2017-11-09T10:48:20.926Z,89.32
2017-11-09T10:49:20.927Z,89.78
2017-11-09T10:50:20.819Z,88.31
2017-11-09T10:51:20.928Z,87.98
2017-11-09T10:52:20.858Z,87.24
2017-11-09T10:53:20.921Z,87.05
2017-11-09T10:54:20.840Z,84.74
2017-11-09T10:55:20.936Z,85.08
2017-11-09T10:56:20.874Z,85.99
2017-11-09T10:57:20.874Z,85.11
2017-11-09T10:58:20.942Z,85.43
2017-11-09T10:59:20.878Z,85.64
2017-11-09T11:00:20.876Z,85.88
2017-11-09T11:01:20.893Z,86.25
2017-11-09T11:02:20.878Z,86.04
2017-11-09T11:03:20.883Z,85.77
2017-11-09T11:04:20.879Z,84.63
2017-11-09T11:05:20.874Z,85.03
2017-11-09T11:06:20.946Z,85.08
2017-11-09T11:07:20.882Z,86.25
2017-11-09T11:08:20.949Z,86.15
2017-11-09T11:09:20.881Z,86.65
2017-11-09T11:10:20.883Z,85.99
2017-11-09T11:11:20.981Z,85.56
2017-11-09T11:12:20.949Z,86.79
2017-11-09T11:13:20.982Z,85.83
2017-11-09T11:14:20.883Z,86.12
2017-11-09T11:15:20.952Z,86.07
2017-11-09T11:16:20.912Z,86.17
2017-11-09T11:17:20.885Z,86.57
2017-11-09T11:18:20.951Z,87.10
2017-11-09T11:19:20.881Z,86.73
2017-11-09T11:20:20.955Z,85.88
2017-11-09T11:21:20.885Z,86.65
2017-11-09T11:22:20.956Z,86.07
2017-11-09T11:23:20.954Z,84.71
2017-11-09T11:24:20.957Z,85.13
2017-11-09T11:25:20.895Z,85.13
2017-11-09T11:26:20.894Z,85.48
2017-11-09T11:27:20.910Z,85.77
2017-11-09T11:28:20.946Z,86.07
2017-11-09T11:29:20.827Z,85.40
2017-11-09T11:30:20.846Z,84.81
2017-11-09T11:31:20.936Z,85.35
2017-11-09T11:32:20.863Z,85.43
2017-11-09T11:33:20.830Z,84.97
2017-11-09T11:34:20.931Z,85.38
2017-11-09T11:35:20.960Z,86.52
2017-11-09T11:36:20.869Z,85.13
2017-11-09T11:37:20.965Z,84.60
2017-11-09T11:38:20.904Z,85.27
2017-11-09T11:39:20.967Z,84.66
2017-11-09T11:40:20.967Z,85.16
2017-11-09T11:41:20.968Z,84.71
2017-11-09T11:42:20.979Z,84.97
2017-11-09T11:43:20.901Z,84.71
2017-11-09T11:44:20.969Z,85.08
2017-11-09T11:45:20.900Z,84.74
2017-11-09T11:46:20.970Z,84.74
2017-11-09T11:47:20.903Z,84.74
2017-11-09T11:48:20.973Z,84.87
2017-11-09T11:49:20.971Z,83.75
2017-11-09T11:50:20.902Z,83.91
2017-11-09T11:51:20.970Z,84.55
2017-11-09T11:52:20.910Z,84.34
2017-11-09T11:53:20.977Z,83.99
2017-11-09T11:54:20.905Z,83.97
2017-11-09T11:55:20.978Z,84.42
2017-11-09T11:56:20.918Z,84.60
2017-11-09T11:57:20.977Z,84.76
2017-11-09T11:58:20.981Z,85.27
2017-11-09T11:59:20.918Z,84.95
2017-11-09T12:00:21.016Z,82.75
2017-11-09T12:01:20.981Z,83.51
2017-11-09T12:02:20.910Z,83.57
2017-11-09T12:03:20.979Z,84.84
2017-11-09T12:04:20.911Z,84.26
2017-11-09T12:05:20.981Z,84.60
2017-11-09T12:06:20.911Z,84.66
2017-11-09T12:07:20.922Z,83.91
2017-11-09T12:08:20.989Z,83.51
2017-11-09T12:09:20.910Z,83.46
2017-11-09T12:10:20.987Z,84.58
2017-11-09T12:11:20.920Z,84.44
2017-11-09T12:12:20.992Z,84.87
2017-11-09T12:13:20.918Z,85.72
2017-11-09T12:14:20.987Z,84.44
2017-11-09T12:15:20.921Z,85.43
2017-11-09T12:16:20.989Z,85.77
2017-11-09T12:17:20.953Z,85.08
2017-11-09T12:18:20.955Z,84.74
2017-11-09T12:19:20.975Z,84.71
2017-11-09T12:20:20.978Z,85.05
2017-11-09T12:21:20.977Z,84.07
2017-11-09T12:22:20.983Z,84.17
2017-11-09T12:23:20.964Z,83.40
2017-11-09T12:24:20.919Z,83.65
2017-11-09T12:25:20.958Z,84.42
2017-11-09T12:26:20.920Z,84.23
2017-11-09T12:27:20.837Z,84.63
2017-11-09T12:28:20.923Z,84.09
2017-11-09T12:29:20.814Z,84.20
2017-11-09T12:30:20.814Z,84.76
2017-11-09T12:31:20.816Z,84.55
2017-11-09T12:32:20.848Z,84.39
2017-11-09T12:33:20.901Z,83.86
2017-11-09T12:34:20.929Z,84.36
2017-11-09T12:35:20.913Z,83.73
2017-11-09T12:36:20.941Z,84.34
2017-11-09T12:37:21.000Z,84.09
2017-11-09T12:38:20.946Z,84.39
2017-11-09T12:39:21.001Z,84.87
2017-11-09T12:40:20.965Z,85.69
2017-11-09T12:41:21.003Z,84.84
2017-11-09T12:42:21.010Z,84.81
2017-11-09T12:43:21.004Z,84.23
2017-11-09T12:44:20.937Z,84.68
2017-11-09T12:45:21.005Z,84.71
2017-11-09T12:46:20.939Z,84.71
2017-11-09T12:47:20.958Z,85.50
2017-11-09T12:48:20.876Z,84.71
2017-11-09T12:49:20.878Z,84.79
2017-11-09T12:50:20.965Z,84.28
2017-11-09T12:51:20.958Z,84.95
2017-11-09T12:52:20.902Z,84.42
2017-11-09T12:53:20.902Z,84.34
2017-11-09T12:54:20.914Z,84.44